createdAt,value
2022-09-25T00:01:11.022Z,0.82
2022-09-25T00:03:13.526Z,0.80
2022-09-25T00:05:15.031Z,1.05
2022-09-25T00:07:16.684Z,0.90
2022-09-25T00:09:25.032Z,1.30
2022-09-25T00:11:27.920Z,0.77
2022-09-25T00:13:38.955Z,0.80
2022-09-25T00:15:54.222Z,0.80
2022-09-25T00:18:06.005Z,0.80
2022-09-25T00:20:17.160Z,0.75
2022-09-25T00:22:31.894Z,0.93
2022-09-25T00:24:42.189Z,0.70
2022-09-25T00:26:53.633Z,1.00
2022-09-25T00:29:06.235Z,1.88
2022-09-25T00:31:19.149Z,0.70
2022-09-25T00:33:30.116Z,0.70
2022-09-25T00:35:38.172Z,1.02
2022-09-25T00:37:46.453Z,0.90
2022-09-25T00:39:55.348Z,1.08
2022-09-25T00:41:58.731Z,0.88
2022-09-25T00:44:01.295Z,1.30
2022-09-25T00:46:04.463Z,1.03
2022-09-25T00:50:16.248Z,0.95
2022-09-25T00:52:18.311Z,0.90
2022-09-25T00:54:22.613Z,1.52
2022-09-25T00:56:24.541Z,1.10
2022-09-25T00:58:27.710Z,1.00
2022-09-25T01:00:29.917Z,2.17
2022-09-25T01:02:34.313Z,1.10
2022-09-25T01:04:38.206Z,1.00
2022-09-25T01:06:40.610Z,1.20
2022-09-25T01:08:42.977Z,1.10
2022-09-25T01:10:44.833Z,0.65
2022-09-25T01:12:48.561Z,0.73
2022-09-25T01:14:50.031Z,1.20
2022-09-25T01:17:10.215Z,1.10
2022-09-25T01:19:14.655Z,1.00
2022-09-25T01:21:31.043Z,1.05
2022-09-25T01:23:45.668Z,1.10
2022-09-25T01:26:05.261Z,1.08
2022-09-25T01:28:18.107Z,1.15
2022-09-25T01:30:20.114Z,0.88
2022-09-25T01:32:26.754Z,1.15
2022-09-25T01:34:34.059Z,1.17
2022-09-25T01:42:46.018Z,0.93
2022-09-25T01:44:55.040Z,0.93
2022-09-25T01:46:59.800Z,1.55
2022-09-25T01:49:10.145Z,1.40
2022-09-25T01:51:16.666Z,1.17
2022-09-25T01:53:21.520Z,0.85
2022-09-25T01:55:26.283Z,1.13
2022-09-25T01:57:32.758Z,0.65
2022-09-25T01:59:54.122Z,0.88
2022-09-25T02:01:56.299Z,1.60
2022-09-25T02:04:18.302Z,0.80
2022-09-25T02:06:20.911Z,1.05
2022-09-25T02:08:25.704Z,1.27
2022-09-25T02:31:07.957Z,1.25
2022-09-25T02:33:09.677Z,1.10
2022-09-25T02:35:11.244Z,1.02
2022-09-25T02:37:13.719Z,1.58
2022-09-25T02:39:18.123Z,1.00
2022-09-25T02:41:27.110Z,1.00
2022-09-25T02:43:41.003Z,1.42
2022-09-25T02:45:53.811Z,1.48
2022-09-25T02:47:55.234Z,1.88
2022-09-25T02:50:35.098Z,1.10
2022-09-25T02:52:36.724Z,1.17
2022-09-25T02:54:45.884Z,1.50
2022-09-25T02:56:52.626Z,1.38
2022-09-25T02:58:56.123Z,1.40
2022-09-25T03:00:59.969Z,1.15
2022-09-25T03:03:03.971Z,1.60
2022-09-25T03:05:07.018Z,1.42
2022-09-25T03:07:08.439Z,1.70
2022-09-25T03:09:10.968Z,1.08
2022-09-25T03:11:14.023Z,1.27
2022-09-25T03:13:17.005Z,1.33
2022-09-25T03:15:20.048Z,1.00
2022-09-25T03:17:23.156Z,3.15
2022-09-25T03:19:30.298Z,1.63
2022-09-25T03:21:34.343Z,1.60
2022-09-25T03:23:37.771Z,1.40
2022-09-25T03:25:44.712Z,1.00
2022-09-25T03:27:51.028Z,1.23
2022-09-25T03:29:56.137Z,1.60
2022-09-25T03:32:00.043Z,1.63
2022-09-25T03:34:03.804Z,1.58
2022-09-25T03:36:15.264Z,1.38
2022-09-25T03:38:18.930Z,1.17
2022-09-25T03:40:22.837Z,1.15
2022-09-25T03:42:29.030Z,1.52
2022-09-25T03:44:33.010Z,1.27
2022-09-25T03:46:37.169Z,1.23
2022-09-25T03:50:42.006Z,1.50
2022-09-25T03:52:43.375Z,1.10
2022-09-25T03:54:44.793Z,1.20
2022-09-25T03:56:46.298Z,1.48
2022-09-25T03:58:48.387Z,1.30
2022-09-25T04:00:49.913Z,1.88
2022-09-25T04:02:51.339Z,1.25
2022-09-25T04:04:55.010Z,1.80
2022-09-25T04:06:57.117Z,1.60
2022-09-25T04:08:58.515Z,1.38
2022-09-25T04:11:00.514Z,1.50
2022-09-25T04:13:01.951Z,1.50
2022-09-25T04:15:03.734Z,2.05
2022-09-25T04:17:05.128Z,1.83
2022-09-25T04:19:06.982Z,1.80
2022-09-25T04:21:09.530Z,1.95
2022-09-25T04:23:11.741Z,1.40
2022-09-25T04:25:14.325Z,1.98
2022-09-25T04:27:21.770Z,1.75
2022-09-25T04:29:24.924Z,1.83
2022-09-25T04:31:26.821Z,1.67
2022-09-25T04:33:46.592Z,1.70
2022-09-25T04:35:48.049Z,1.85
2022-09-25T04:37:49.550Z,4.30
2022-09-25T04:39:51.070Z,1.63
2022-09-25T04:41:52.542Z,1.60
2022-09-25T04:43:53.941Z,1.75
2022-09-25T04:45:55.414Z,1.88
2022-09-25T04:47:58.858Z,1.95
2022-09-25T04:50:00.525Z,2.17
2022-09-25T04:52:02.099Z,2.13
2022-09-25T04:54:03.976Z,2.08
2022-09-25T04:56:12.287Z,2.80
2022-09-25T04:58:16.625Z,1.98
2022-09-25T05:00:19.386Z,2.85
2022-09-25T05:02:21.005Z,2.13
2022-09-25T05:04:22.830Z,1.77
2022-09-25T05:06:24.309Z,1.85
2022-09-25T05:08:26.543Z,2.25
2022-09-25T05:10:30.005Z,1.35
2022-09-25T05:12:32.072Z,2.20
2022-09-25T05:14:33.742Z,2.33
2022-09-25T05:16:35.356Z,1.40
2022-09-25T05:18:36.769Z,4.15
2022-09-25T05:20:38.947Z,2.00
2022-09-25T05:22:40.507Z,3.67
2022-09-25T05:24:42.302Z,2.50
2022-09-25T05:26:43.829Z,2.30
2022-09-25T05:28:48.655Z,1.85
2022-09-25T05:30:50.557Z,2.30
2022-09-25T05:32:52.736Z,2.28
2022-09-25T05:34:54.171Z,2.13
2022-09-25T05:36:55.806Z,2.10
2022-09-25T05:38:57.323Z,2.55
2022-09-25T05:41:04.360Z,2.67
2022-09-25T05:43:05.958Z,1.88
2022-09-25T05:45:07.817Z,3.20
2022-09-25T05:47:09.399Z,2.05
2022-09-25T05:49:10.943Z,1.92
2022-09-25T05:51:12.421Z,2.22
2022-09-25T05:53:13.922Z,2.03
2022-09-25T05:55:15.645Z,2.63
2022-09-25T05:57:17.550Z,4.18
2022-09-25T05:59:19.260Z,2.70
2022-09-25T06:01:21.052Z,2.20
2022-09-25T06:03:22.909Z,2.15
2022-09-25T06:05:24.442Z,3.63
2022-09-25T06:07:26.075Z,2.65
2022-09-25T06:09:27.618Z,2.33
2022-09-25T06:11:31.618Z,2.10
2022-09-25T06:13:34.643Z,2.00
2022-09-25T06:15:37.839Z,3.28
2022-09-25T06:17:39.283Z,2.50
2022-09-25T06:19:40.647Z,2.20
2022-09-25T06:21:42.243Z,2.83
2022-09-25T06:23:45.684Z,2.13
2022-09-25T06:25:53.931Z,2.40
2022-09-25T06:28:08.424Z,2.40
2022-09-25T06:30:19.674Z,2.22
2022-09-25T06:32:30.094Z,2.25
2022-09-25T06:34:41.532Z,2.08
2022-09-25T06:36:52.125Z,2.35
2022-09-25T06:39:02.971Z,2.15
2022-09-25T06:41:13.519Z,2.47
2022-09-25T06:43:19.555Z,3.33
2022-09-25T06:45:30.416Z,2.63
2022-09-25T06:47:41.748Z,3.05
2022-09-25T06:49:52.068Z,2.42
2022-09-25T06:52:02.729Z,2.55
2022-09-25T06:54:14.174Z,3.67
2022-09-25T06:56:17.210Z,3.00
2022-09-25T06:58:20.623Z,2.92
2022-09-25T07:00:22.114Z,2.28
2022-09-25T07:02:42.310Z,2.35
2022-09-25T07:04:43.759Z,3.03
2022-09-25T07:06:45.882Z,2.17
2022-09-25T07:08:48.377Z,2.03
2022-09-25T07:10:50.546Z,2.25
2022-09-25T07:12:52.073Z,2.22
2022-09-25T07:14:53.686Z,2.30
2022-09-25T07:16:55.040Z,2.00
2022-09-25T07:18:58.520Z,1.20
2022-09-25T07:21:04.921Z,1.67
2022-09-25T07:23:06.678Z,1.70
2022-09-25T07:25:10.744Z,1.77
2022-09-25T07:27:12.366Z,1.60
2022-09-25T07:29:13.773Z,1.65
2022-09-25T07:31:16.884Z,1.45
2022-09-25T07:33:18.411Z,1.50
2022-09-25T07:37:21.698Z,1.38
2022-09-25T07:39:23.262Z,1.55
2022-09-25T07:41:25.078Z,1.77
2022-09-25T07:43:27.172Z,2.00
2022-09-25T07:45:29.350Z,1.88
2022-09-25T07:47:30.784Z,1.77
2022-09-25T07:49:32.606Z,1.60
2022-09-25T07:51:34.121Z,2.20
2022-09-25T07:53:35.838Z,1.75
2022-09-25T07:55:37.205Z,1.60
2022-09-25T07:58:04.563Z,2.15
2022-09-25T08:00:06.767Z,1.58
2022-09-25T08:02:09.283Z,1.80
2022-09-25T08:04:10.867Z,1.23
2022-09-25T08:06:13.549Z,1.85
2022-09-25T08:08:15.185Z,2.13
2022-09-25T08:10:16.645Z,1.90
2022-09-25T08:12:18.207Z,1.38
2022-09-25T08:14:23.326Z,1.60
2022-09-25T08:16:28.004Z,1.40
2022-09-25T08:18:29.784Z,1.13
2022-09-25T08:20:31.374Z,1.70
2022-09-25T08:22:34.054Z,1.70
2022-09-25T08:24:36.376Z,1.23
2022-09-25T08:26:37.956Z,1.20
2022-09-25T08:28:39.711Z,1.10
2022-09-25T08:30:43.598Z,1.45
2022-09-25T08:32:45.190Z,1.35
2022-09-25T08:34:47.469Z,1.23
2022-09-25T08:36:52.682Z,1.30
2022-09-25T08:39:00.000Z,1.33
2022-09-25T08:41:20.491Z,1.42
2022-09-25T08:43:23.352Z,1.40
2022-09-25T08:45:45.129Z,1.30
2022-09-25T08:48:06.202Z,1.10
2022-09-25T08:50:14.863Z,1.15
2022-09-25T08:52:18.025Z,1.35
2022-09-25T08:54:22.283Z,1.25
2022-09-25T08:56:25.631Z,0.93
2022-09-25T08:58:31.872Z,0.95
2022-09-25T09:00:33.348Z,1.27
2022-09-25T09:02:38.503Z,1.20
2022-09-25T09:04:46.293Z,1.20
2022-09-25T09:06:53.312Z,1.50
2022-09-25T09:09:07.162Z,0.85
2022-09-25T09:11:13.839Z,0.93
2022-09-25T09:13:41.527Z,1.17
2022-09-25T09:15:59.243Z,0.70
2022-09-25T09:18:05.589Z,0.98
2022-09-25T09:20:18.875Z,0.50
2022-09-25T09:22:24.558Z,0.70
2022-09-25T09:24:26.139Z,1.30
2022-09-25T09:26:27.614Z,0.77
2022-09-25T09:28:49.408Z,0.68
2022-09-25T09:31:15.919Z,0.70
2022-09-25T09:33:45.712Z,0.73
2022-09-25T09:35:57.698Z,1.17
2022-09-25T09:38:16.056Z,0.60
2022-09-25T09:40:34.762Z,0.90
2022-09-25T09:42:54.053Z,0.98
2022-09-25T09:45:11.804Z,1.02
2022-09-25T09:47:36.577Z,0.55
2022-09-25T09:49:51.048Z,0.60
2022-09-25T09:52:22.366Z,0.70
2022-09-25T09:54:38.155Z,0.50
2022-09-25T09:56:48.987Z,0.55
2022-09-25T09:58:59.596Z,0.60
2022-09-25T10:01:22.237Z,0.90
2022-09-25T10:03:28.256Z,1.00
2022-09-25T10:05:31.829Z,0.47
2022-09-25T10:07:35.371Z,0.32
2022-09-25T10:11:40.367Z,0.63
2022-09-25T10:13:42.762Z,0.57
2022-09-25T10:15:56.122Z,0.50
2022-09-25T10:17:59.275Z,0.50
2022-09-25T10:20:03.563Z,0.40
2022-09-25T10:22:07.208Z,0.40
2022-09-25T10:28:21.543Z,0.47
2022-09-25T10:30:23.050Z,0.47
2022-09-25T10:32:24.493Z,0.38
2022-09-25T10:34:28.216Z,0.40
2022-09-25T10:36:38.950Z,0.73
2022-09-25T10:38:42.143Z,1.58
2022-09-25T10:40:47.594Z,0.50
2022-09-25T10:42:54.070Z,0.52
2022-09-25T10:44:58.094Z,0.98
2022-09-25T10:47:36.931Z,0.30
2022-09-25T10:50:04.549Z,0.43
2022-09-25T10:52:07.422Z,0.40
2022-09-25T10:54:09.832Z,1.02
2022-09-25T10:56:14.227Z,0.20
2022-09-25T10:58:29.513Z,0.30
2022-09-25T11:00:31.179Z,0.30
2022-09-25T11:02:39.142Z,0.30
2022-09-25T11:04:43.059Z,0.22
2022-09-25T11:08:49.449Z,0.40
2022-09-25T11:10:52.822Z,0.38
2022-09-25T11:12:54.615Z,0.35
2022-09-25T11:15:01.531Z,0.30
2022-09-25T11:17:10.093Z,0.30
2022-09-25T11:19:25.083Z,0.10
2022-09-25T11:21:35.850Z,0.52
2022-09-25T11:23:41.752Z,0.63
2022-09-25T11:25:47.217Z,0.20
2022-09-25T11:27:54.203Z,0.10
2022-09-25T11:29:58.589Z,0.30
2022-09-25T11:32:05.024Z,0.25
2022-09-25T11:34:24.669Z,0.25
2022-09-25T11:36:29.954Z,0.30
2022-09-25T11:39:02.284Z,0.30
2022-09-25T11:41:12.471Z,0.20
2022-09-25T11:43:17.029Z,0.30
2022-09-25T11:45:30.383Z,0.20
2022-09-25T11:47:36.676Z,0.20
2022-09-25T11:49:39.981Z,0.40
2022-09-25T11:52:07.426Z,0.32
2022-09-25T11:54:32.365Z,0.30
2022-09-25T11:56:54.042Z,0.22
2022-09-25T11:59:17.042Z,0.22
2022-09-25T12:01:27.763Z,0.30
2022-09-25T12:03:47.806Z,0.28
2022-09-25T12:05:55.457Z,0.43
2022-09-25T12:08:05.834Z,0.30
2022-09-25T12:10:13.079Z,0.35
2022-09-25T12:12:31.169Z,0.65
2022-09-25T12:14:48.593Z,0.32
2022-09-25T12:16:50.096Z,0.40
2022-09-25T12:18:51.659Z,0.30
2022-09-25T12:20:55.790Z,0.30
2022-09-25T12:23:00.410Z,0.47
2022-09-25T12:25:20.426Z,0.40
2022-09-25T12:27:34.004Z,0.38
2022-09-25T12:29:46.324Z,0.20
2022-09-25T12:31:52.547Z,0.30
2022-09-25T12:34:20.947Z,0.55
2022-09-25T12:36:37.289Z,0.17
2022-09-25T12:39:19.674Z,0.30
2022-09-25T12:41:38.468Z,0.45
2022-09-25T12:43:50.221Z,0.55
2022-09-25T12:46:03.551Z,0.20
2022-09-25T12:48:26.415Z,0.20
2022-09-25T12:50:41.856Z,0.32
2022-09-25T12:53:13.499Z,0.30
2022-09-25T12:55:42.648Z,0.30
2022-09-25T12:58:01.548Z,0.30
2022-09-25T13:00:33.677Z,0.20
2022-09-25T13:02:51.134Z,0.32
2022-09-25T13:05:24.710Z,0.47
2022-09-25T13:07:47.297Z,0.30
2022-09-25T13:09:49.064Z,0.30
2022-09-25T13:11:54.282Z,0.30
2022-09-25T13:13:57.931Z,0.85
2022-09-25T13:16:00.789Z,0.38
2022-09-25T13:18:04.031Z,0.40
2022-09-25T13:20:24.045Z,0.30
2022-09-25T13:22:25.987Z,0.30
2022-09-25T13:24:27.839Z,0.20
2022-09-25T13:26:30.279Z,0.40
2022-09-25T13:28:31.944Z,0.30
2022-09-25T13:30:33.536Z,0.93
2022-09-25T13:32:35.447Z,0.22
2022-09-25T13:34:38.745Z,0.47
2022-09-25T13:36:47.446Z,0.20
2022-09-25T13:39:10.196Z,0.10
2022-09-25T13:41:13.707Z,0.60
2022-09-25T13:43:25.385Z,0.40
2022-09-25T13:45:27.226Z,0.10
2022-09-25T13:47:32.246Z,0.30
2022-09-25T13:49:34.648Z,0.13
2022-09-25T13:51:36.638Z,0.20
2022-09-25T13:53:58.998Z,0.20
2022-09-25T13:56:01.672Z,0.20
2022-09-25T13:58:03.107Z,0.20
2022-09-25T14:00:06.288Z,0.40
2022-09-25T14:02:27.364Z,0.10
2022-09-25T14:04:34.073Z,0.15
2022-09-25T14:06:39.191Z,0.82
2022-09-25T14:08:42.550Z,0.70
2022-09-25T14:10:45.959Z,1.70
2022-09-25T14:12:48.526Z,2.58
2022-09-25T14:14:55.309Z,2.13
2022-09-25T14:16:58.505Z,7.38
2022-09-25T14:19:01.622Z,1.20
2022-09-25T14:21:06.354Z,1.92
2022-09-25T14:23:16.029Z,0.40
2022-09-25T14:25:35.081Z,0.63
2022-09-25T14:27:37.034Z,0.73
2022-09-25T14:29:39.824Z,0.13
2022-09-25T14:31:45.723Z,0.38
2022-09-25T14:33:51.785Z,0.20
2022-09-25T14:36:07.567Z,3.28
2022-09-25T14:38:21.162Z,2.90
2022-09-25T14:40:33.411Z,0.55
2022-09-25T14:42:46.034Z,3.97
2022-09-25T14:44:49.366Z,0.77
2022-09-25T14:46:51.475Z,0.60
2022-09-25T14:48:56.276Z,0.75
2022-09-25T14:51:02.995Z,0.50
2022-09-25T14:53:08.390Z,0.40
2022-09-25T14:55:16.198Z,0.38
2022-09-25T14:57:25.247Z,0.60
2022-09-25T14:59:50.803Z,0.82
2022-09-25T15:01:52.963Z,0.65
2022-09-25T15:03:58.787Z,0.75
2022-09-25T15:06:02.246Z,0.50
2022-09-25T15:08:18.903Z,1.13
2022-09-25T15:10:35.538Z,1.02
2022-09-25T15:12:44.812Z,1.08
2022-09-25T15:14:59.460Z,0.88
2022-09-25T15:17:19.640Z,0.68
2022-09-25T15:19:23.057Z,0.80
2022-09-25T15:21:27.599Z,0.80
2022-09-25T15:23:34.344Z,1.08
2022-09-25T15:25:42.543Z,0.90
2022-09-25T15:27:44.058Z,0.50
2022-09-25T15:29:46.343Z,1.63
2022-09-25T15:31:51.515Z,0.43
2022-09-25T15:34:11.927Z,0.40
2022-09-25T15:36:23.442Z,0.40
2022-09-25T15:38:44.508Z,0.40
2022-09-25T15:40:54.338Z,0.50
2022-09-25T15:43:04.878Z,1.00
2022-09-25T15:45:47.571Z,0.47
2022-09-25T15:48:12.640Z,0.30
2022-09-25T15:50:33.519Z,0.40
2022-09-25T15:52:52.930Z,0.70
2022-09-25T15:55:06.793Z,0.60
2022-09-25T15:57:23.921Z,0.30
2022-09-25T16:00:12.087Z,0.60
2022-09-25T16:02:53.195Z,0.70
2022-09-25T16:05:20.650Z,0.25
2022-09-25T16:07:50.426Z,0.57
2022-09-25T16:12:51.129Z,0.30
2022-09-25T16:14:53.252Z,0.50
2022-09-25T16:16:55.147Z,0.30
2022-09-25T16:18:57.614Z,1.27
2022-09-25T16:21:08.887Z,0.77
2022-09-25T16:23:41.569Z,0.30
2022-09-25T16:25:44.554Z,0.50
2022-09-25T16:27:48.899Z,0.55
2022-09-25T16:29:51.142Z,0.50
2022-09-25T16:31:53.471Z,1.48
2022-09-25T16:34:01.083Z,0.80
2022-09-25T16:36:16.945Z,0.75
2022-09-25T16:38:33.148Z,0.70
2022-09-25T16:40:38.846Z,0.30
2022-09-25T16:42:40.405Z,0.82
2022-09-25T16:44:46.687Z,0.50
2022-09-25T16:46:52.147Z,0.80
2022-09-25T16:49:04.881Z,0.95
2022-09-25T16:51:11.325Z,0.60
2022-09-25T16:53:13.013Z,0.52
2022-09-25T16:55:21.387Z,0.55
2022-09-25T16:57:23.825Z,0.60
2022-09-25T16:59:28.157Z,0.43
2022-09-25T17:01:29.935Z,1.30
2022-09-25T17:03:49.668Z,0.60
2022-09-25T17:05:51.299Z,0.82
2022-09-25T17:07:57.445Z,1.08
2022-09-25T17:10:01.205Z,0.40
2022-09-25T17:12:08.604Z,0.50
2022-09-25T17:14:23.250Z,0.50
2022-09-25T17:16:25.151Z,0.88
2022-09-25T17:18:26.663Z,0.70
2022-09-25T17:20:31.010Z,0.47
2022-09-25T17:22:32.484Z,0.50
2022-09-25T17:24:34.179Z,0.55
2022-09-25T17:26:35.643Z,0.35
2022-09-25T17:28:37.046Z,0.55
2022-09-25T17:30:39.879Z,0.82
2022-09-25T17:32:44.723Z,0.70
2022-09-25T17:34:46.889Z,0.80
2022-09-25T17:36:48.398Z,0.70
2022-09-25T17:38:50.170Z,0.57
2022-09-25T17:40:52.571Z,0.60
2022-09-25T17:42:54.429Z,1.10
2022-09-25T17:44:57.563Z,0.60
2022-09-25T17:46:59.700Z,0.60
2022-09-25T17:49:01.181Z,0.68
2022-09-25T17:51:04.177Z,1.42
2022-09-25T17:53:15.011Z,0.68
2022-09-25T17:55:17.722Z,0.80
2022-09-25T17:57:19.187Z,0.70
2022-09-25T17:59:20.761Z,0.82
2022-09-25T18:01:22.967Z,0.65
2022-09-25T18:03:24.733Z,0.50
2022-09-25T18:05:29.580Z,0.50
2022-09-25T18:07:33.623Z,0.55
2022-09-25T18:09:35.657Z,0.50
2022-09-25T18:11:37.484Z,0.60
2022-09-25T18:13:41.766Z,0.50
2022-09-25T18:15:48.596Z,0.77
2022-09-25T18:17:50.138Z,0.93
2022-09-25T18:20:10.675Z,0.80
2022-09-25T18:22:19.106Z,1.98
2022-09-25T18:24:21.069Z,7.75
2022-09-25T18:26:22.581Z,9.52
2022-09-25T18:28:24.107Z,8.57
2022-09-25T18:30:25.771Z,14.52
2022-09-25T18:32:27.469Z,13.48
2022-09-25T18:34:29.651Z,7.43
2022-09-25T18:36:31.272Z,7.22
2022-09-25T18:38:32.696Z,5.07
2022-09-25T18:40:34.215Z,5.00
2022-09-25T18:42:35.722Z,2.22
2022-09-25T18:44:42.586Z,2.38
2022-09-25T18:46:56.875Z,2.40
2022-09-25T18:49:08.779Z,1.70
2022-09-25T18:51:22.470Z,1.88
2022-09-25T18:53:48.065Z,2.30
2022-09-25T18:56:08.120Z,1.10
2022-09-25T18:58:30.294Z,1.10
2022-09-25T19:00:55.760Z,1.25
2022-09-25T19:03:23.495Z,1.92
2022-09-25T19:05:33.203Z,1.58
2022-09-25T19:07:58.630Z,1.92
2022-09-25T19:10:15.008Z,1.15
2022-09-25T19:12:40.037Z,1.30
2022-09-25T19:15:00.019Z,0.98
2022-09-25T19:17:27.175Z,0.90
2022-09-25T19:19:52.785Z,0.75
2022-09-25T19:21:57.273Z,1.00
2022-09-25T19:23:58.819Z,1.33
2022-09-25T19:26:02.743Z,0.70
2022-09-25T19:28:04.189Z,1.05
2022-09-25T19:30:05.841Z,0.88
2022-09-25T19:32:08.332Z,0.57
2022-09-25T19:34:10.166Z,1.00
2022-09-25T19:36:16.085Z,0.70
2022-09-25T19:38:17.555Z,2.20
2022-09-25T19:40:37.118Z,0.90
2022-09-25T19:42:38.675Z,0.85
2022-09-25T19:44:42.042Z,1.20
2022-09-25T19:46:43.957Z,0.98
2022-09-25T19:48:48.682Z,1.00
2022-09-25T19:50:50.620Z,0.85
2022-09-25T19:52:52.081Z,0.93
2022-09-25T19:54:53.453Z,0.70
2022-09-25T19:56:54.927Z,0.60
2022-09-25T19:58:56.796Z,1.23
2022-09-25T20:01:00.482Z,1.33
2022-09-25T20:03:02.015Z,1.05
2022-09-25T20:05:03.636Z,0.57
2022-09-25T20:07:05.401Z,0.98
2022-09-25T20:09:07.382Z,0.95
2022-09-25T20:11:16.867Z,0.77
2022-09-25T20:13:18.462Z,0.70
2022-09-25T20:15:19.874Z,0.73
2022-09-25T20:17:21.730Z,1.15
2022-09-25T20:19:23.539Z,1.00
2022-09-25T20:21:25.490Z,1.15
2022-09-25T20:23:27.231Z,0.65
2022-09-25T20:25:28.837Z,1.38
2022-09-25T20:27:30.219Z,1.05
2022-09-25T20:29:31.791Z,0.77
2022-09-25T20:31:34.286Z,0.95
2022-09-25T20:33:36.207Z,0.70
2022-09-25T20:35:37.842Z,0.77
2022-09-25T20:37:39.379Z,1.05
2022-09-25T20:39:40.836Z,1.23
2022-09-25T20:41:44.160Z,1.40
2022-09-25T20:43:48.470Z,0.85
2022-09-25T20:46:04.049Z,1.40
2022-09-25T20:48:05.655Z,0.93
2022-09-25T20:50:07.935Z,1.15
2022-09-25T20:52:12.445Z,1.08
2022-09-25T20:54:14.523Z,1.35
2022-09-25T20:56:16.334Z,0.93
2022-09-25T20:58:18.249Z,1.10
2022-09-25T21:00:19.998Z,1.75
2022-09-25T21:02:21.621Z,0.93
2022-09-25T21:04:23.383Z,1.00
2022-09-25T21:06:25.867Z,2.25
2022-09-25T21:08:28.449Z,0.73
2022-09-25T21:10:30.076Z,1.00
2022-09-25T21:12:31.650Z,0.77
2022-09-25T21:14:35.938Z,1.10
2022-09-25T21:16:37.822Z,1.08
2022-09-25T21:18:40.790Z,1.30
2022-09-25T21:20:42.221Z,0.90
2022-09-25T21:22:43.709Z,0.75
2022-09-25T21:24:45.113Z,1.33
2022-09-25T21:26:47.051Z,1.08
2022-09-25T21:28:51.488Z,0.80
2022-09-25T21:30:53.176Z,1.25
2022-09-25T21:32:54.738Z,1.63
2022-09-25T21:34:56.586Z,1.17
2022-09-25T21:36:58.116Z,1.17
2022-09-25T21:39:00.159Z,0.75
2022-09-25T21:41:03.627Z,1.15
2022-09-25T21:43:05.076Z,0.63
2022-09-25T21:45:07.772Z,0.95
2022-09-25T21:47:09.335Z,0.85
2022-09-25T21:49:15.321Z,0.85
2022-09-25T21:51:17.390Z,0.60
2022-09-25T21:53:18.861Z,0.85
2022-09-25T21:55:26.918Z,0.90
2022-09-25T21:57:37.581Z,0.70
2022-09-25T21:59:49.210Z,1.10
2022-09-25T22:01:59.144Z,1.00
2022-09-25T22:04:09.161Z,1.15
2022-09-25T22:06:20.686Z,0.95
2022-09-25T22:08:29.547Z,0.98
2022-09-25T22:10:39.575Z,0.80
2022-09-25T22:12:51.024Z,0.90
2022-09-25T22:15:00.245Z,1.30
2022-09-25T22:17:10.029Z,0.95
2022-09-25T22:19:28.769Z,0.93
2022-09-25T22:21:41.322Z,0.80
2022-09-25T22:23:44.513Z,1.95
2022-09-25T22:25:46.954Z,0.80
2022-09-25T22:27:48.508Z,0.88
2022-09-25T22:29:49.981Z,1.67
2022-09-25T22:31:51.754Z,0.73
2022-09-25T22:33:55.091Z,1.15
2022-09-25T22:36:00.462Z,1.23
2022-09-25T22:38:02.126Z,1.50
2022-09-25T22:40:03.726Z,1.52
2022-09-25T22:42:05.258Z,1.00
2022-09-25T22:44:06.810Z,0.80
2022-09-25T22:46:09.704Z,0.88
2022-09-25T22:48:11.230Z,0.90
2022-09-25T22:50:12.791Z,1.13
2022-09-25T22:52:14.519Z,0.85
2022-09-25T22:54:16.021Z,1.10
2022-09-25T22:56:18.705Z,1.30
2022-09-25T22:58:20.558Z,0.98
2022-09-25T23:00:22.433Z,1.38
2022-09-25T23:02:23.932Z,0.70
2022-09-25T23:04:25.722Z,0.95
2022-09-25T23:06:28.163Z,0.93
2022-09-25T23:08:30.879Z,0.80
2022-09-25T23:10:55.296Z,0.93
2022-09-25T23:12:55.533Z,0.90
2022-09-25T23:14:57.003Z,0.88
2022-09-25T23:16:58.804Z,1.08
2022-09-25T23:19:00.751Z,1.20
2022-09-25T23:21:02.312Z,0.80
2022-09-25T23:23:04.055Z,1.50
2022-09-25T23:25:05.772Z,1.10
2022-09-25T23:27:07.370Z,0.65
2022-09-25T23:29:11.156Z,0.80
2022-09-25T23:31:14.062Z,0.82
2022-09-25T23:33:15.580Z,1.08
2022-09-25T23:35:17.357Z,1.17
2022-09-25T23:37:18.866Z,1.73
2022-09-25T23:39:20.818Z,1.00
2022-09-25T23:41:23.922Z,1.02
2022-09-25T23:43:25.639Z,1.07
2022-09-25T23:45:29.245Z,1.05
2022-09-25T23:47:30.977Z,0.93
2022-09-25T23:49:32.462Z,0.88
2022-09-25T23:51:33.930Z,0.77
2022-09-25T23:53:35.731Z,0.80
2022-09-25T23:55:41.600Z,0.88
2022-09-25T23:57:44.371Z,0.90
2022-09-25T23:59:45.792Z,0.88
